createdAt,value
2019-03-13T00:10:54.721Z,-0.88
2019-03-13T00:25:57.488Z,-1.05
2019-03-13T00:41:00.166Z,-0.92
2019-03-13T00:56:03.654Z,-0.34
2019-03-13T01:11:07.501Z,-0.01
2019-03-13T01:26:10.102Z,0.25
2019-03-13T01:41:12.681Z,0.23
2019-03-13T01:56:16.884Z,0.13
2019-03-13T02:11:19.417Z,0.17
2019-03-13T02:26:21.976Z,0.22
2019-03-13T02:41:24.518Z,0.13
2019-03-13T02:56:27.847Z,0.21
2019-03-13T03:11:30.392Z,0.26
2019-03-13T03:26:32.941Z,0.21
2019-03-13T03:41:35.543Z,0.39
2019-03-13T03:56:38.400Z,0.60
2019-03-13T04:11:42.083Z,0.68
2019-03-13T04:26:45.962Z,0.73
2019-03-13T04:41:49.386Z,0.77
2019-03-13T04:56:51.946Z,0.83
2019-03-13T05:11:54.511Z,0.92
2019-03-13T05:26:58.341Z,1.03
2019-03-13T05:42:00.915Z,1.18
2019-03-13T05:57:03.464Z,1.51
2019-03-13T06:12:07.385Z,1.81
2019-03-13T06:27:09.957Z,2.49
2019-03-13T06:42:12.518Z,4.12
2019-03-13T06:57:16.691Z,6.23
2019-03-13T07:12:25.833Z,6.49
2019-03-13T07:27:35.904Z,7.50
2019-03-13T07:42:43.903Z,7.54
2019-03-13T07:57:52.467Z,7.44
2019-03-13T08:13:08.932Z,7.15
2019-03-13T08:28:16.929Z,8.21
2019-03-13T08:43:21.499Z,8.61
2019-03-13T08:58:44.953Z,8.47
2019-03-13T09:14:04.585Z,7.55
2019-03-13T09:29:09.139Z,7.57
2019-03-13T09:44:14.508Z,7.44
2019-03-13T09:59:21.602Z,8.26
2019-03-13T10:14:30.174Z,7.93
2019-03-13T10:29:37.119Z,9.20
2019-03-13T10:44:56.967Z,8.92
2019-03-13T11:00:05.296Z,9.31
2019-03-13T11:15:13.754Z,8.97
2019-03-13T11:30:20.728Z,9.10
2019-03-13T12:16:41.380Z,9.26
2019-03-13T12:31:48.553Z,7.30
2019-03-13T13:02:34.705Z,7.18
2019-03-13T13:17:43.825Z,7.38
2019-03-13T13:32:46.426Z,6.92
2019-03-13T13:47:49.012Z,6.85
2019-03-13T14:02:52.404Z,7.02
2019-03-13T14:17:54.971Z,6.89
2019-03-13T14:32:57.553Z,6.85
2019-03-13T14:48:00.748Z,6.75
2019-03-13T15:03:03.459Z,6.46
2019-03-13T15:18:07.454Z,6.07
2019-03-13T15:33:10.025Z,5.67
2019-03-13T15:48:16.051Z,5.28
2019-03-13T16:03:18.685Z,4.77
2019-03-13T16:18:21.506Z,4.38
2019-03-13T16:33:24.064Z,4.08
2019-03-13T16:48:26.835Z,3.90
2019-03-13T17:03:29.414Z,3.67
2019-03-13T17:18:32.024Z,3.63
2019-03-13T17:33:34.685Z,3.55
2019-03-13T17:48:38.039Z,3.39
2019-03-13T18:03:40.631Z,3.33
2019-03-13T18:18:43.250Z,3.29
2019-03-13T18:33:45.846Z,2.65
2019-03-13T18:48:49.203Z,2.27
2019-03-13T19:03:51.831Z,2.27
2019-03-13T19:18:54.465Z,2.63
2019-03-13T19:33:57.074Z,2.62
2019-03-13T19:49:01.737Z,2.79
2019-03-13T20:04:06.074Z,2.51
2019-03-13T20:19:08.698Z,2.14
2019-03-13T20:34:13.226Z,2.46
2019-03-13T20:49:16.010Z,2.44
2019-03-13T21:04:18.649Z,2.30
2019-03-13T21:19:22.340Z,2.20
2019-03-13T21:34:24.897Z,1.95
2019-03-13T21:49:29.842Z,1.86
2019-03-13T22:04:32.746Z,1.99
2019-03-13T22:19:36.107Z,1.95
2019-03-13T22:34:38.660Z,1.95
2019-03-13T22:49:41.217Z,1.56
2019-03-13T23:04:45.516Z,1.71
2019-03-13T23:19:48.077Z,1.67
2019-03-13T23:34:51.121Z,1.18
2019-03-13T23:49:53.668Z,1.05
